Time;durP1;ratioP1;P1;durP2;ratioP2;P2;SDS_P1;SDS_P2;PMS_P1;PMS_P2;Temp;Humidity;BMP_temperature;BMP_pressure;BME280_temperature;BME280_humidity;BME280_pressure;Samples;Min_cycle;Max_cycle;Signal;HPM_P1;HPM_P2
2021/11/01 00:00:19;;;;;;;11.63;3.10;;;;;;;;;;5026075;28;20307;-71
2021/11/01 00:02:45;;;;;;;15.87;3.60;;;;;;;;;;5023952;28;20986;-71
2021/11/01 00:05:11;;;;;;;13.97;4.43;;;;;;;;;;5024683;28;20562;-71
2021/11/01 00:07:36;;;;;;;12.77;3.00;;;;;;;;;;5024643;28;20179;-71
2021/11/01 00:10:02;;;;;;;13.73;2.73;;;;;;;;;;5019099;28;20193;-72
2021/11/01 00:12:30;;;;;;;12.23;3.40;;;;;;;;;;5020736;28;20191;-71
2021/11/01 00:14:56;;;;;;;18.57;4.00;;;;;;;;;;5023095;28;20185;-71
2021/11/01 00:17:22;;;;;;;12.90;3.13;;;;;;;;;;5030194;28;20178;-71
2021/11/01 00:19:47;;;;;;;15.57;3.73;;;;;;;;;;5004585;28;20186;-71
2021/11/01 00:22:12;;;;;;;10.50;2.50;;;;;;;;;;5024207;28;21460;-71
2021/11/01 00:24:37;;;;;;;10.37;3.17;;;;;;;;;;5025170;28;20210;-71
2021/11/01 00:27:03;;;;;;;14.27;3.30;;;;;;;;;;5021906;28;20239;-71
2021/11/01 00:29:28;;;;;;;13.03;3.83;;;;;;;;;;5021433;28;20180;-71
2021/11/01 00:31:53;;;;;;;11.47;3.20;;;;;;;;;;5019194;28;20528;-71
2021/11/01 00:34:20;;;;;;;18.10;4.37;;;;;;;;;;5017430;28;20723;-71
2021/11/01 00:36:45;;;;;;;13.07;2.60;;;;;;;;;;5025274;28;20193;-71
2021/11/01 00:39:10;;;;;;;10.50;2.50;;;;;;;;;;5027250;28;20178;-71
2021/11/01 00:41:35;;;;;;;14.13;2.90;;;;;;;;;;5027202;28;20188;-71
2021/11/01 00:44:00;;;;;;;10.77;2.57;;;;;;;;;;5026114;28;20363;-71
2021/11/01 00:46:26;;;;;;;18.80;2.93;;;;;;;;;;5031953;28;20605;-71
2021/11/01 00:48:52;;;;;;;9.63;3.30;;;;;;;;;;5034024;28;20266;-71
2021/11/01 00:51:17;;;;;;;11.13;2.00;;;;;;;;;;5033360;28;20186;-71
2021/11/01 00:53:47;;;;;;;9.43;2.20;;;;;;;;;;5039362;28;20206;-71
2021/11/01 00:56:13;;;;;;;9.17;2.30;;;;;;;;;;5033805;28;20218;-72
2021/11/01 00:58:39;;;;;;;11.87;2.97;;;;;;;;;;5038158;28;20185;-71
2021/11/01 01:01:04;;;;;;;7.87;2.10;;;;;;;;;;5030457;28;20227;-71
2021/11/01 01:03:31;;;;;;;19.97;3.57;;;;;;;;;;5015996;28;20301;-71
2021/11/01 01:05:58;;;;;;;13.70;3.10;;;;;;;;;;5036140;28;20174;-71
2021/11/01 01:08:23;;;;;;;10.03;2.47;;;;;;;;;;5020710;28;20176;-71
2021/11/01 01:10:48;;;;;;;13.23;3.23;;;;;;;;;;5035901;28;20185;-71
2021/11/01 01:13:17;;;;;;;9.70;2.53;;;;;;;;;;5028368;28;20724;-71
2021/11/01 01:18:29;;;;;;;7.37;2.53;;;;;;;;;;5025710;28;20216;-71
2021/11/01 01:20:58;;;;;;;12.07;2.63;;;;;;;;;;5027537;28;20676;-71
2021/11/01 01:23:23;;;;;;;8.27;2.30;;;;;;;;;;4992654;28;1069368;-70
2021/11/01 01:25:51;;;;;;;7.57;2.27;;;;;;;;;;5029389;28;20179;-70
2021/11/01 01:28:20;;;;;;;9.90;1.97;;;;;;;;;;5024728;28;20194;-71
2021/11/01 01:30:46;;;;;;;9.37;2.47;;;;;;;;;;5029063;28;20269;-70
2021/11/01 01:33:11;;;;;;;10.80;2.53;;;;;;;;;;5030105;28;20211;-73
2021/11/01 01:35:40;;;;;;;9.27;2.37;;;;;;;;;;5024687;28;20470;-70
2021/11/01 01:38:05;;;;;;;7.23;2.20;;;;;;;;;;5026513;28;20667;-73
2021/11/01 01:40:31;;;;;;;7.13;2.20;;;;;;;;;;5025349;28;20190;-71
2021/11/01 01:42:56;;;;;;;13.83;2.97;;;;;;;;;;5028883;28;20680;-71
2021/11/01 01:45:21;;;;;;;11.20;2.60;;;;;;;;;;5027868;28;20171;-71
2021/11/01 01:47:47;;;;;;;10.00;2.67;;;;;;;;;;5010149;28;20397;-71
2021/11/01 01:50:12;;;;;;;15.90;2.30;;;;;;;;;;5030866;28;20642;-71
2021/11/01 01:52:38;;;;;;;12.53;3.07;;;;;;;;;;5028166;28;20587;-71
2021/11/01 01:55:04;;;;;;;7.40;2.00;;;;;;;;;;5025602;28;20252;-71
2021/11/01 01:57:30;;;;;;;10.53;3.07;;;;;;;;;;5023075;28;20197;-72
2021/11/01 01:59:55;;;;;;;6.70;1.97;;;;;;;;;;5026095;28;20289;-71
2021/11/01 02:02:20;;;;;;;9.70;2.47;;;;;;;;;;5019253;28;20210;-71
2021/11/01 02:04:45;;;;;;;8.90;2.30;;;;;;;;;;5026180;28;20327;-71
2021/11/01 02:07:14;;;;;;;5.57;2.20;;;;;;;;;;5029497;28;20185;-73
2021/11/01 02:09:49;;;;;;;11.03;2.37;;;;;;;;;;5021945;28;20615;-71
2021/11/01 02:12:18;;;;;;;7.13;2.20;;;;;;;;;;5025116;28;20272;-70
2021/11/01 02:14:44;;;;;;;13.83;2.20;;;;;;;;;;5024374;28;20884;-70
2021/11/01 02:17:11;;;;;;;12.80;2.73;;;;;;;;;;5023453;28;20198;-70
2021/11/01 02:19:39;;;;;;;10.20;2.40;;;;;;;;;;5023034;28;20251;-72
2021/11/01 02:22:09;;;;;;;9.77;2.43;;;;;;;;;;5025452;28;20194;-71
2021/11/01 02:24:47;;;;;;;9.93;2.50;;;;;;;;;;5045477;23;20242;-74
2021/11/01 02:27:12;;;;;;;13.20;3.27;;;;;;;;;;5038184;28;20177;-74
2021/11/01 02:29:42;;;;;;;10.20;2.53;;;;;;;;;;5023082;28;20192;-74
2021/11/01 02:32:08;;;;;;;6.63;2.57;;;;;;;;;;5024029;28;20695;-74
2021/11/01 02:34:34;;;;;;;9.97;2.43;;;;;;;;;;5038344;28;20296;-74
2021/11/01 02:36:59;;;;;;;5.50;2.40;;;;;;;;;;5042813;28;20192;-74
2021/11/01 02:39:26;;;;;;;8.50;2.10;;;;;;;;;;5024049;28;20277;-74
2021/11/01 02:41:51;;;;;;;8.87;2.33;;;;;;;;;;5020348;28;20182;-74
2021/11/01 02:44:17;;;;;;;11.37;2.67;;;;;;;;;;5039989;28;20717;-74
2021/11/01 02:46:45;;;;;;;7.63;2.43;;;;;;;;;;5021670;28;20551;-74
2021/11/01 02:49:10;;;;;;;8.63;2.57;;;;;;;;;;5036296;28;20190;-74
2021/11/01 02:51:35;;;;;;;12.27;3.10;;;;;;;;;;5041236;28;20177;-74
2021/11/01 02:54:01;;;;;;;10.07;2.57;;;;;;;;;;5045386;28;20689;-74
2021/11/01 02:56:26;;;;;;;9.97;2.30;;;;;;;;;;5038922;28;21341;-74
2021/11/01 02:58:52;;;;;;;11.40;2.10;;;;;;;;;;5038561;28;20182;-74
2021/11/01 03:01:18;;;;;;;4.53;2.07;;;;;;;;;;5040130;28;20188;-74
2021/11/01 03:03:43;;;;;;;7.30;2.50;;;;;;;;;;5035997;28;20614;-74
2021/11/01 03:06:09;;;;;;;7.90;2.30;;;;;;;;;;5036445;28;20251;-74
2021/11/01 03:08:35;;;;;;;7.87;2.50;;;;;;;;;;5038401;28;20179;-74
2021/11/01 03:11:01;;;;;;;11.37;3.57;;;;;;;;;;5035723;28;20189;-74
2021/11/01 03:13:28;;;;;;;9.43;2.80;;;;;;;;;;5021076;28;20426;-74
2021/11/01 03:15:54;;;;;;;7.17;2.43;;;;;;;;;;5036631;28;20189;-74
2021/11/01 03:18:20;;;;;;;7.03;2.43;;;;;;;;;;5040187;28;20670;-74
2021/11/01 03:20:46;;;;;;;9.13;3.37;;;;;;;;;;5034827;28;20283;-74
2021/11/01 03:23:20;;;;;;;7.33;4.20;;;;;;;;;;5038114;28;20217;-74
2021/11/01 03:25:50;;;;;;;9.00;2.63;;;;;;;;;;5037339;28;20284;-74
2021/11/01 03:28:17;;;;;;;11.97;2.83;;;;;;;;;;5037690;28;20185;-74
2021/11/01 03:30:43;;;;;;;13.50;2.80;;;;;;;;;;5037917;28;20173;-74
2021/11/01 03:33:09;;;;;;;6.57;1.93;;;;;;;;;;5036757;28;20205;-74
2021/11/01 03:35:35;;;;;;;13.37;3.10;;;;;;;;;;5038616;28;20185;-74
2021/11/01 03:38:01;;;;;;;8.40;2.70;;;;;;;;;;5040591;28;20249;-74
2021/11/01 03:40:28;;;;;;;9.10;2.27;;;;;;;;;;5018747;28;20186;-73
2021/11/01 03:42:55;;;;;;;5.27;2.23;;;;;;;;;;5028640;28;20205;-72
2021/11/01 03:45:22;;;;;;;12.43;2.43;;;;;;;;;;5039713;28;20232;-74
2021/11/01 03:47:49;;;;;;;8.27;2.10;;;;;;;;;;5037448;28;20696;-75
2021/11/01 03:50:41;;;;;;;7.13;2.50;;;;;;;;;;5035675;28;20190;-73
2021/11/01 03:52:59;;;;;;;14.03;3.63;;;;;;;;;;5035596;28;20220;-75
2021/11/01 03:55:31;;;;;;;8.50;2.50;;;;;;;;;;5038493;28;20182;-74
2021/11/01 03:58:00;;;;;;;10.50;2.50;;;;;;;;;;5036930;28;20231;-74
2021/11/01 04:00:29;;;;;;;7.43;2.50;;;;;;;;;;5035741;28;20197;-74
2021/11/01 04:02:54;;;;;;;5.23;2.40;;;;;;;;;;5036720;28;20206;-74
2021/11/01 04:05:20;;;;;;;10.80;4.20;;;;;;;;;;5034348;28;20889;-74
2021/11/01 04:07:45;;;;;;;5.90;1.87;;;;;;;;;;5034404;28;20178;-74
2021/11/01 04:10:10;;;;;;;11.70;2.47;;;;;;;;;;5036908;28;20673;-74
2021/11/01 04:12:37;;;;;;;12.17;3.33;;;;;;;;;;5038958;28;20679;-74
2021/11/01 04:15:10;;;;;;;7.77;2.00;;;;;;;;;;5041644;28;20190;-74
2021/11/01 04:17:39;;;;;;;5.97;2.23;;;;;;;;;;5044745;28;20198;-75
2021/11/01 04:20:26;;;;;;;5.17;2.20;;;;;;;;;;5039686;28;20182;-74
2021/11/01 04:23:00;;;;;;;7.20;2.17;;;;;;;;;;5041402;28;20237;-74
2021/11/01 04:25:27;;;;;;;7.60;2.60;;;;;;;;;;5023634;28;20786;-73
2021/11/01 04:27:52;;;;;;;13.43;2.57;;;;;;;;;;5026390;28;20181;-74
2021/11/01 04:30:18;;;;;;;10.37;3.00;;;;;;;;;;5050639;28;20547;-74
2021/11/01 04:32:44;;;;;;;10.27;2.90;;;;;;;;;;5029116;28;20666;-74
2021/11/01 04:35:34;;;;;;;9.13;2.83;;;;;;;;;;5024561;28;20759;-74
2021/11/01 04:38:07;;;;;;;6.53;2.43;;;;;;;;;;5043421;28;20186;-74
2021/11/01 04:53:53;;;;;;;9.80;2.87;;;;;;;;;;5039321;28;20282;-74
2021/11/01 04:56:22;;;;;;;12.90;2.70;;;;;;;;;;5042982;28;20510;-74
2021/11/01 04:58:48;;;;;;;10.03;2.97;;;;;;;;;;5043485;28;20293;-74
2021/11/01 05:01:15;;;;;;;8.00;2.27;;;;;;;;;;5024211;28;20276;-74
2021/11/01 05:03:42;;;;;;;7.27;2.07;;;;;;;;;;5040471;28;20476;-74
2021/11/01 05:06:09;;;;;;;13.60;2.87;;;;;;;;;;5024196;28;20243;-74
2021/11/01 05:08:49;;;;;;;7.80;3.10;;;;;;;;;;5041882;28;20885;-74
2021/11/01 05:11:31;;;;;;;7.97;2.60;;;;;;;;;;5039473;28;20180;-74
2021/11/01 05:13:58;;;;;;;10.63;2.87;;;;;;;;;;5023116;28;20210;-74
2021/11/01 05:16:53;;;;;;;10.43;2.20;;;;;;;;;;5040637;28;20190;-74
2021/11/01 05:24:10;;;;;;;11.27;2.93;;;;;;;;;;5042482;28;20214;-74
2021/11/01 05:29:19;;;;;;;7.33;2.27;;;;;;;;;;5047362;28;20176;-74
2021/11/01 05:31:55;;;;;;;10.30;2.80;;;;;;;;;;5049994;28;20268;-74
2021/11/01 05:34:20;;;;;;;8.67;2.77;;;;;;;;;;5042180;28;20193;-74
2021/11/01 05:36:45;;;;;;;9.97;2.70;;;;;;;;;;5038549;28;20218;-74
2021/11/01 05:39:11;;;;;;;9.93;2.67;;;;;;;;;;5021247;28;20650;-74
2021/11/01 05:41:37;;;;;;;10.33;2.00;;;;;;;;;;5041658;28;20197;-74
2021/11/01 05:44:02;;;;;;;11.13;2.77;;;;;;;;;;5039055;28;20284;-74
2021/11/01 05:46:39;;;;;;;14.47;2.60;;;;;;;;;;5024119;28;20221;-73
2021/11/01 05:49:05;;;;;;;16.20;2.77;;;;;;;;;;5037765;28;20269;-73
2021/11/01 05:51:31;;;;;;;9.93;3.37;;;;;;;;;;5040024;28;20185;-74
2021/11/01 05:54:02;;;;;;;12.83;3.00;;;;;;;;;;5014082;28;20205;-74
2021/11/01 06:01:35;;;;;;;12.93;3.23;;;;;;;;;;5037718;28;20217;-73
2021/11/01 06:06:41;;;;;;;10.47;3.40;;;;;;;;;;5036970;28;20188;-74
2021/11/01 06:09:32;;;;;;;12.63;3.03;;;;;;;;;;5038759;28;20467;-74
2021/11/01 06:14:41;;;;;;;13.23;3.23;;;;;;;;;;5039197;28;22086;-73
2021/11/01 06:17:07;;;;;;;11.33;3.63;;;;;;;;;;5039256;28;20177;-74
2021/11/01 06:19:32;;;;;;;15.40;3.27;;;;;;;;;;5024200;28;20184;-74
2021/11/01 06:21:57;;;;;;;13.00;3.20;;;;;;;;;;5038541;28;20182;-73
2021/11/01 06:27:10;;;;;;;9.20;3.53;;;;;;;;;;5040508;28;20181;-74
2021/11/01 06:29:50;;;;;;;14.43;4.47;;;;;;;;;;5035761;28;20596;-73
2021/11/01 06:32:30;;;;;;;11.10;2.90;;;;;;;;;;5043781;28;20277;-73
2021/11/01 06:39:14;;;;;;;13.53;3.37;;;;;;;;;;5041976;28;20260;-73
2021/11/01 06:40:51;;;;;;;8.70;2.67;;;;;;;;;;5039360;28;20192;-73
2021/11/01 07:15:25;;;;;;;16.77;5.00;;;;;;;;;;5037842;28;20189;-73
2021/11/01 07:18:05;;;;;;;10.37;2.83;;;;;;;;;;5038872;28;20185;-72
2021/11/01 07:20:54;;;;;;;11.23;3.33;;;;;;;;;;5019990;28;20336;-74
2021/11/01 08:23:47;;;;;;;5.80;2.10;;;;;;;;;;5039846;28;20220;-74
2021/11/01 08:29:21;;;;;;;9.60;2.30;;;;;;;;;;5047028;28;20253;-73
2021/11/01 09:25:02;;;;;;;8.10;2.20;;;;;;;;;;5028240;28;20220;-75
2021/11/01 09:27:30;;;;;;;5.90;2.00;;;;;;;;;;5030409;28;20769;-75
2021/11/01 09:30:06;;;;;;;6.73;2.60;;;;;;;;;;5029828;28;20184;-76
2021/11/01 09:41:07;;;;;;;7.07;1.90;;;;;;;;;;4988696;28;20571;-74
2021/11/01 09:43:33;;;;;;;5.80;1.42;;;;;;;;;;5029846;28;20738;-72
2021/11/01 09:45:59;;;;;;;5.43;1.80;;;;;;;;;;5025611;28;20261;-74
2021/11/01 09:48:25;;;;;;;4.40;1.33;;;;;;;;;;5028174;28;20185;-75
2021/11/01 09:50:51;;;;;;;5.60;1.50;;;;;;;;;;5029708;28;20182;-74
2021/11/01 09:53:20;;;;;;;5.10;1.85;;;;;;;;;;5028816;28;20254;-74
2021/11/01 10:01:11;;;;;;;3.83;1.63;;;;;;;;;;5026335;28;20608;-75
2021/11/01 10:03:41;;;;;;;5.32;1.80;;;;;;;;;;5028688;28;20201;-75
2021/11/01 10:06:07;;;;;;;5.57;1.98;;;;;;;;;;5027116;28;20185;-75
2021/11/01 10:08:33;;;;;;;6.32;1.42;;;;;;;;;;5028055;28;20178;-75
2021/11/01 10:10:58;;;;;;;5.45;1.60;;;;;;;;;;5030331;28;20647;-74
2021/11/01 10:13:27;;;;;;;4.05;1.80;;;;;;;;;;5028013;28;20193;-74
2021/11/01 10:18:47;;;;;;;3.20;1.30;;;;;;;;;;5032846;28;20192;-75
2021/11/01 10:21:15;;;;;;;7.50;1.30;;;;;;;;;;5031259;28;20207;-74
2021/11/01 10:23:45;;;;;;;6.80;1.65;;;;;;;;;;5029633;28;20213;-74
2021/11/01 10:26:15;;;;;;;4.90;1.52;;;;;;;;;;5027771;28;20184;-75
2021/11/01 10:28:40;;;;;;;3.38;1.88;;;;;;;;;;5010913;28;20945;-75
2021/11/01 10:31:06;;;;;;;5.07;2.08;;;;;;;;;;5009796;28;20177;-74
2021/11/01 10:33:33;;;;;;;6.45;1.73;;;;;;;;;;5011629;28;20750;-73
2021/11/01 10:35:58;;;;;;;2.38;1.63;;;;;;;;;;5029453;28;20950;-74
2021/11/01 11:14:20;;;;;;;3.50;1.08;;;;;;;;;;5024754;28;20653;-75
2021/11/01 11:27:25;;;;;;;6.88;2.35;;;;;;;;;;5027862;28;20226;-76
2021/11/01 11:49:38;;;;;;;6.57;1.60;;;;;;;;;;5026766;28;20192;-73
2021/11/01 11:52:04;;;;;;;10.07;1.65;;;;;;;;;;5026967;28;20180;-73
2021/11/01 11:54:31;;;;;;;3.35;1.48;;;;;;;;;;5028881;28;21917;-72
2021/11/01 11:56:57;;;;;;;4.55;1.50;;;;;;;;;;5026670;28;20208;-72
2021/11/01 11:59:30;;;;;;;4.32;1.30;;;;;;;;;;5023518;28;20182;-73
2021/11/01 12:01:55;;;;;;;5.13;1.45;;;;;;;;;;5026230;28;20186;-73
2021/11/01 12:04:24;;;;;;;4.85;1.30;;;;;;;;;;5023163;28;20237;-75
2021/11/01 12:06:56;;;;;;;3.53;1.30;;;;;;;;;;5026194;28;20708;-74
2021/11/01 12:09:26;;;;;;;4.53;1.50;;;;;;;;;;5026849;28;20177;-73
2021/11/01 12:12:12;;;;;;;7.35;1.80;;;;;;;;;;5025890;28;20174;-73
2021/11/01 12:17:03;;;;;;;4.15;1.42;;;;;;;;;;5027507;28;21729;-74
2021/11/01 12:17:32;;;;;;;5.93;1.92;;;;;;;;;;5035789;28;20774;-73
2021/11/01 12:20:05;;;;;;;4.15;1.20;;;;;;;;;;5031334;28;20858;-73
2021/11/01 12:22:32;;;;;;;3.47;1.30;;;;;;;;;;5008251;28;20397;-73
2021/11/01 12:24:59;;;;;;;5.53;1.75;;;;;;;;;;5025425;28;20286;-75
2021/11/01 12:27:24;;;;;;;6.88;1.48;;;;;;;;;;5030549;28;20202;-74
2021/11/01 12:29:50;;;;;;;4.32;1.45;;;;;;;;;;5024177;28;20300;-74
2021/11/01 12:32:15;;;;;;;6.65;1.77;;;;;;;;;;5011321;28;20269;-74
2021/11/01 12:34:59;;;;;;;3.97;1.48;;;;;;;;;;5028760;28;20628;-74
2021/11/01 12:37:31;;;;;;;3.40;1.67;;;;;;;;;;5029889;28;20591;-74
2021/11/01 12:40:12;;;;;;;6.20;2.13;;;;;;;;;;5029511;28;20209;-74
2021/11/01 12:43:03;;;;;;;6.13;2.17;;;;;;;;;;5012289;28;20732;-74
2021/11/01 12:46:05;;;;;;;5.80;1.65;;;;;;;;;;5013242;28;20263;-75
2021/11/01 12:59:36;;;;;;;6.88;2.08;;;;;;;;;;5029609;28;20204;-73
2021/11/01 13:02:02;;;;;;;5.15;1.30;;;;;;;;;;5029284;28;20514;-73
2021/11/01 13:04:33;;;;;;;10.90;1.85;;;;;;;;;;5028627;28;20682;-73
2021/11/01 13:07:04;;;;;;;9.35;2.67;;;;;;;;;;5031328;28;20268;-73
2021/11/01 13:09:34;;;;;;;3.70;1.55;;;;;;;;;;5013494;28;20184;-73
2021/11/01 13:19:49;;;;;;;7.10;1.92;;;;;;;;;;5026542;28;20969;-73
2021/11/01 13:22:21;;;;;;;3.35;1.63;;;;;;;;;;5027314;28;20186;-73
2021/11/01 13:25:17;;;;;;;3.65;2.03;;;;;;;;;;5030702;28;20232;-73
2021/11/01 13:38:41;;;;;;;7.22;1.90;;;;;;;;;;5026792;28;20215;-73
2021/11/01 13:41:11;;;;;;;4.28;2.20;;;;;;;;;;5024560;28;20209;-73
2021/11/01 13:43:37;;;;;;;9.82;2.33;;;;;;;;;;5008111;28;20201;-73
2021/11/01 13:46:03;;;;;;;4.40;2.10;;;;;;;;;;5026367;28;20181;-72
2021/11/01 13:48:30;;;;;;;7.95;1.77;;;;;;;;;;5006906;28;20185;-73
2021/11/01 13:51:07;;;;;;;3.65;1.77;;;;;;;;;;5027088;28;20612;-74
2021/11/01 13:53:37;;;;;;;7.55;2.10;;;;;;;;;;5025988;28;20201;-73
2021/11/01 13:56:15;;;;;;;9.13;1.80;;;;;;;;;;5008777;28;20174;-75
2021/11/01 13:58:52;;;;;;;8.45;2.03;;;;;;;;;;5032558;28;20212;-74
2021/11/01 14:12:13;;;;;;;10.23;2.63;;;;;;;;;;5022699;28;20181;-74
2021/11/01 14:58:22;;;;;;;3.92;1.40;;;;;;;;;;5031556;28;20668;-74
2021/11/01 15:11:18;;;;;;;7.95;1.75;;;;;;;;;;5023116;28;20194;-75
2021/11/01 15:13:56;;;;;;;2.28;1.40;;;;;;;;;;5024545;28;20220;-74
2021/11/01 15:16:49;;;;;;;0.52;0.32;;;;;;;;;;5026615;28;20271;-75
2021/11/01 15:35:57;;;;;;;1.47;0.50;;;;;;;;;;5024262;28;20189;-75
2021/11/01 16:18:38;;;;;;;1.63;0.40;;;;;;;;;;5039285;28;20210;-73
2021/11/01 16:21:03;;;;;;;1.10;0.57;;;;;;;;;;5020056;28;20600;-75
2021/11/01 16:23:36;;;;;;;0.60;0.40;;;;;;;;;;5034166;28;20197;-73
2021/11/01 16:26:11;;;;;;;1.07;0.57;;;;;;;;;;5037346;28;21013;-75
2021/11/01 16:28:37;;;;;;;1.70;0.70;;;;;;;;;;5028119;28;20181;-75
2021/11/01 16:31:21;;;;;;;0.60;0.50;;;;;;;;;;5027496;28;20193;-73
2021/11/01 16:33:50;;;;;;;1.30;0.60;;;;;;;;;;5033403;28;20280;-75
2021/11/01 16:36:39;;;;;;;1.37;1.07;;;;;;;;;;5012268;28;20193;-74
2021/11/01 16:39:04;;;;;;;1.27;1.07;;;;;;;;;;5010998;28;20910;-75
2021/11/01 16:41:29;;;;;;;0.50;0.43;;;;;;;;;;5026356;28;20178;-75
2021/11/01 16:43:55;;;;;;;0.70;0.70;;;;;;;;;;5025584;28;20203;-74
2021/11/01 16:46:20;;;;;;;1.47;0.60;;;;;;;;;;5012980;28;20658;-75
2021/11/01 16:48:45;;;;;;;1.23;0.80;;;;;;;;;;5026884;28;21679;-75
2021/11/01 16:51:11;;;;;;;1.30;0.70;;;;;;;;;;5029598;28;20186;-75
2021/11/01 16:53:40;;;;;;;1.33;0.60;;;;;;;;;;5031276;28;20223;-74
2021/11/01 16:56:55;;;;;;;1.17;0.60;;;;;;;;;;5035522;28;20183;-75
2021/11/01 16:58:56;;;;;;;1.10;0.70;;;;;;;;;;5011840;28;20623;-73
2021/11/01 17:01:25;;;;;;;1.63;0.60;;;;;;;;;;5028648;28;20182;-73
2021/11/01 17:03:55;;;;;;;3.27;0.80;;;;;;;;;;5026675;28;20287;-73
2021/11/01 17:06:32;;;;;;;2.00;1.10;;;;;;;;;;5028984;28;20180;-73
2021/11/01 17:22:55;;;;;;;2.53;0.80;;;;;;;;;;5027626;28;20192;-75
2021/11/01 17:25:24;;;;;;;1.23;0.90;;;;;;;;;;5012128;28;20213;-73
2021/11/01 17:30:57;;;;;;;1.30;1.20;;;;;;;;;;5031067;28;20209;-74
2021/11/01 18:24:12;;;;;;;2.73;1.37;;;;;;;;;;5029748;28;20296;-74
2021/11/01 18:37:40;;;;;;;2.97;2.33;;;;;;;;;;4962236;28;20245;-75
2021/11/01 18:40:14;;;;;;;3.63;2.30;;;;;;;;;;4965459;28;20750;-73
2021/11/01 18:53:13;;;;;;;2.90;2.10;;;;;;;;;;5026777;28;20248;-73
2021/11/01 18:55:39;;;;;;;4.77;2.90;;;;;;;;;;5011096;28;20181;-74
2021/11/01 18:58:06;;;;;;;4.10;2.47;;;;;;;;;;5028270;28;20974;-74
2021/11/01 19:00:33;;;;;;;5.90;2.67;;;;;;;;;;5009666;28;20186;-74
2021/11/01 19:02:59;;;;;;;4.10;3.00;;;;;;;;;;5026694;28;20651;-75
2021/11/01 19:05:43;;;;;;;5.33;2.63;;;;;;;;;;5026403;28;20675;-75
2021/11/01 19:08:18;;;;;;;4.00;3.07;;;;;;;;;;5009556;28;20796;-74
2021/11/01 20:03:38;;;;;;;5.93;5.30;;;;;;;;;;5027077;28;20252;-75
2021/11/01 20:06:15;;;;;;;6.60;4.53;;;;;;;;;;5023214;28;20180;-75
2021/11/01 20:09:18;;;;;;;5.30;4.73;;;;;;;;;;5009511;28;20177;-74
2021/11/01 21:25:40;;;;;;;5.40;4.00;;;;;;;;;;5014684;28;20213;-70
2021/11/01 21:28:05;;;;;;;5.40;4.00;;;;;;;;;;5014182;28;20644;-70
2021/11/01 21:30:31;;;;;;;6.83;4.27;;;;;;;;;;5006742;28;20190;-70
2021/11/01 21:32:56;;;;;;;7.00;5.20;;;;;;;;;;5008368;28;20187;-70
2021/11/01 21:35:27;;;;;;;7.90;5.17;;;;;;;;;;5006727;28;20290;-70
2021/11/01 21:37:53;;;;;;;6.10;4.70;;;;;;;;;;5008780;28;20205;-70
2021/11/01 21:40:18;;;;;;;5.63;4.90;;;;;;;;;;5008223;28;20538;-70
2021/11/01 21:42:43;;;;;;;7.17;5.43;;;;;;;;;;5007236;28;20190;-70
2021/11/01 21:45:10;;;;;;;6.20;4.83;;;;;;;;;;5019798;28;20221;-70
2021/11/01 21:47:36;;;;;;;7.40;4.70;;;;;;;;;;5020527;28;20186;-71
2021/11/01 21:50:03;;;;;;;8.57;5.50;;;;;;;;;;5005900;28;20178;-70
2021/11/01 21:52:28;;;;;;;5.83;4.67;;;;;;;;;;5011402;28;20328;-70
2021/11/01 21:54:56;;;;;;;6.37;5.20;;;;;;;;;;5009126;28;20340;-70
2021/11/01 22:18:30;;;;;;;6.43;5.40;;;;;;;;;;5012695;28;20236;-71
2021/11/01 22:21:13;;;;;;;6.03;5.03;;;;;;;;;;5013384;28;20190;-70
2021/11/01 22:23:50;;;;;;;9.17;5.57;;;;;;;;;;5017921;28;20713;-70
2021/11/01 22:26:31;;;;;;;8.93;5.60;;;;;;;;;;4998037;28;20196;-70
2021/11/01 22:40:37;;;;;;;6.77;5.63;;;;;;;;;;5012805;28;20679;-70
2021/11/01 22:43:17;;;;;;;9.90;6.57;;;;;;;;;;4994284;28;20297;-70
2021/11/01 22:48:44;;;;;;;6.73;6.03;;;;;;;;;;5007932;28;20585;-70
2021/11/01 22:57:06;;;;;;;8.83;6.07;;;;;;;;;;5013582;28;20186;-71
2021/11/01 22:59:12;;;;;;;7.63;5.87;;;;;;;;;;4986064;28;20190;-70
2021/11/01 23:01:40;;;;;;;11.33;6.73;;;;;;;;;;5004128;28;20183;-70
2021/11/01 23:04:21;;;;;;;8.23;6.33;;;;;;;;;;4992891;28;20695;-70
2021/11/01 23:31:25;;;;;;;8.73;6.60;;;;;;;;;;5018738;28;20216;-70
2021/11/01 23:31:33;;;;;;;9.57;8.60;;;;;;;;;;5028400;28;20636;-70
2021/11/01 23:34:00;;;;;;;10.57;7.77;;;;;;;;;;5005403;28;20707;-70
2021/11/01 23:36:26;;;;;;;11.40;8.07;;;;;;;;;;5014009;28;20542;-70
2021/11/01 23:38:51;;;;;;;10.73;7.03;;;;;;;;;;5015523;28;20174;-70
2021/11/01 23:41:16;;;;;;;12.17;8.07;;;;;;;;;;5020334;28;20186;-70
2021/11/01 23:43:42;;;;;;;11.93;9.30;;;;;;;;;;5022206;28;20198;-70
2021/11/01 23:46:07;;;;;;;10.17;7.30;;;;;;;;;;5006117;28;20205;-70
2021/11/01 23:48:32;;;;;;;11.03;8.47;;;;;;;;;;5027506;28;20257;-70
2021/11/01 23:50:58;;;;;;;9.83;8.07;;;;;;;;;;5018815;28;20907;-70
2021/11/01 23:55:58;;;;;;;9.27;7.73;;;;;;;;;;5003546;28;20721;-70
2021/11/01 23:58:23;;;;;;;10.80;8.20;;;;;;;;;;5003592;28;20186;-70
